Time;durP1;ratioP1;P1;durP2;ratioP2;P2;SDS_P1;SDS_P2;PMS_P1;PMS_P2;Temp;Humidity;BMP_temperature;BMP_pressure;BME280_temperature;BME280_humidity;BME280_pressure;Samples;Min_cycle;Max_cycle;Signal;HPM_P1;HPM_P2
2023/07/14 00:00:14;;;;;;;5.72;1.90;;;18.10;99.90;;;;;;5061854;28;20227;-79
2023/07/14 00:02:43;;;;;;;5.38;1.63;;;18.10;99.90;;;;;;5062768;28;20216;-80
2023/07/14 00:05:18;;;;;;;3.03;1.90;;;18.10;99.90;;;;;;5062900;28;20194;-80
2023/07/14 00:07:48;;;;;;;6.07;1.80;;;18.10;99.90;;;;;;5061267;28;20216;-78
2023/07/14 00:10:19;;;;;;;2.42;1.75;;;18.00;99.90;;;;;;5055995;28;20220;-77
2023/07/14 00:12:46;;;;;;;4.18;1.83;;;18.00;99.90;;;;;;5062583;28;20295;-78
2023/07/14 00:15:14;;;;;;;3.63;1.98;;;18.00;99.90;;;;;;5063345;28;20254;-77
2023/07/14 00:17:42;;;;;;;4.20;1.80;;;18.00;99.90;;;;;;5046892;28;20701;-77
2023/07/14 00:20:23;;;;;;;6.43;2.00;;;18.00;99.90;;;;;;5061615;28;20762;-79
2023/07/14 00:22:52;;;;;;;3.22;1.60;;;17.90;99.90;;;;;;5065994;28;20655;-79
2023/07/14 00:25:20;;;;;;;9.18;1.77;;;17.80;99.90;;;;;;5060611;28;20229;-77
2023/07/14 00:27:48;;;;;;;4.70;2.05;;;17.80;99.90;;;;;;5070421;28;20247;-77
2023/07/14 00:30:19;;;;;;;3.60;1.88;;;17.80;99.90;;;;;;5064840;28;20217;-77
2023/07/14 00:32:47;;;;;;;4.85;2.05;;;17.80;99.90;;;;;;5061173;28;20190;-77
2023/07/14 00:35:24;;;;;;;4.35;1.70;;;17.80;99.90;;;;;;5063350;28;20236;-77
2023/07/14 00:37:52;;;;;;;4.18;2.10;;;17.80;99.90;;;;;;5054371;28;20232;-77
2023/07/14 00:40:21;;;;;;;2.75;1.80;;;17.80;99.90;;;;;;5064026;28;20229;-77
2023/07/14 00:42:53;;;;;;;4.30;1.70;;;17.80;99.90;;;;;;5045988;28;20205;-77
2023/07/14 00:45:23;;;;;;;3.35;2.03;;;17.80;99.90;;;;;;5064655;28;20236;-77
2023/07/14 00:47:54;;;;;;;2.45;1.88;;;17.80;99.90;;;;;;5053639;28;20275;-77
2023/07/14 00:50:27;;;;;;;2.00;1.90;;;17.80;99.90;;;;;;5063806;28;20694;-77
2023/07/14 00:52:55;;;;;;;3.17;1.95;;;17.80;99.90;;;;;;5061423;28;20274;-77
2023/07/14 00:55:31;;;;;;;1.60;1.50;;;17.80;99.90;;;;;;5050801;28;20284;-77
2023/07/14 00:57:59;;;;;;;2.58;1.60;;;17.90;99.90;;;;;;5061663;28;20273;-76
2023/07/14 01:00:30;;;;;;;3.17;2.25;;;17.90;99.90;;;;;;5053004;28;20283;-77
2023/07/14 01:02:58;;;;;;;3.13;1.73;;;17.90;99.90;;;;;;5063292;28;20197;-78
2023/07/14 01:05:27;;;;;;;2.95;1.80;;;17.80;99.90;;;;;;5063798;28;20207;-77
2023/07/14 01:07:55;;;;;;;4.40;1.80;;;17.80;99.90;;;;;;5063777;28;20666;-77
2023/07/14 01:10:25;;;;;;;4.43;1.75;;;17.80;99.90;;;;;;5053467;28;20244;-77
2023/07/14 01:12:54;;;;;;;1.90;1.73;;;17.80;99.90;;;;;;5057331;28;20736;-79
2023/07/14 01:15:22;;;;;;;8.55;1.48;;;17.90;99.90;;;;;;5050921;28;20201;-78
2023/07/14 01:17:51;;;;;;;4.03;1.75;;;17.80;99.90;;;;;;5064205;28;20686;-78
2023/07/14 01:20:20;;;;;;;4.75;1.98;;;17.80;99.90;;;;;;5070698;28;20227;-79
2023/07/14 01:22:55;;;;;;;4.10;2.03;;;17.80;99.90;;;;;;5060865;28;20215;-77
2023/07/14 01:25:27;;;;;;;3.10;2.17;;;17.80;99.90;;;;;;5054001;28;20207;-77
2023/07/14 01:27:56;;;;;;;3.38;2.22;;;17.80;99.90;;;;;;5058167;28;20245;-78
2023/07/14 01:30:24;;;;;;;2.80;1.85;;;17.80;99.90;;;;;;5056345;28;20282;-77
2023/07/14 01:32:52;;;;;;;7.75;1.65;;;17.80;99.90;;;;;;5065711;28;20706;-76
2023/07/14 01:35:24;;;;;;;4.18;1.98;;;17.80;99.90;;;;;;5056470;28;20597;-76
2023/07/14 01:37:51;;;;;;;2.13;1.70;;;17.90;99.90;;;;;;5060127;28;20210;-77
2023/07/14 01:40:20;;;;;;;2.15;1.77;;;17.90;99.90;;;;;;5061642;28;20224;-77
2023/07/14 01:42:50;;;;;;;3.25;1.75;;;17.80;99.90;;;;;;5055762;28;20204;-76
2023/07/14 01:45:19;;;;;;;4.25;1.92;;;17.80;99.90;;;;;;5047701;28;20201;-76
2023/07/14 01:47:49;;;;;;;4.70;1.73;;;17.80;99.90;;;;;;5060000;28;20210;-77
2023/07/14 01:50:19;;;;;;;3.28;1.73;;;17.80;99.90;;;;;;5060189;28;20252;-76
2023/07/14 01:52:47;;;;;;;6.80;1.52;;;17.80;99.90;;;;;;5057246;28;20246;-76
2023/07/14 01:55:15;;;;;;;4.50;1.85;;;17.80;99.90;;;;;;5062055;28;20241;-76
2023/07/14 01:57:43;;;;;;;4.68;1.52;;;17.80;99.90;;;;;;5059745;28;20276;-76
2023/07/14 02:00:12;;;;;;;4.38;1.55;;;17.80;99.90;;;;;;5047391;28;20254;-76
2023/07/14 02:02:41;;;;;;;2.67;1.90;;;17.80;99.90;;;;;;5061892;28;20225;-76
2023/07/14 02:05:18;;;;;;;2.72;1.45;;;17.90;99.90;;;;;;5062524;28;20201;-77
2023/07/14 02:07:47;;;;;;;4.35;1.70;;;17.90;99.90;;;;;;5060336;28;20209;-77
2023/07/14 02:10:16;;;;;;;2.90;1.70;;;17.90;99.90;;;;;;5053893;28;20256;-77
2023/07/14 02:12:46;;;;;;;5.13;1.60;;;17.90;99.90;;;;;;5061408;28;20465;-79
2023/07/14 02:15:17;;;;;;;3.17;1.42;;;17.90;99.90;;;;;;5058036;28;20205;-79
2023/07/14 02:17:46;;;;;;;1.63;1.52;;;17.90;99.90;;;;;;5064546;28;20200;-78
2023/07/14 02:20:16;;;;;;;1.75;1.48;;;17.80;99.90;;;;;;5064584;28;20250;-79
2023/07/14 02:22:44;;;;;;;3.10;1.60;;;17.80;99.90;;;;;;5059182;28;20193;-76
2023/07/14 02:25:13;;;;;;;2.88;1.42;;;17.80;99.90;;;;;;5055547;28;20209;-77
2023/07/14 02:27:41;;;;;;;4.68;1.70;;;17.80;99.90;;;;;;5071537;28;20208;-77
2023/07/14 02:30:12;;;;;;;2.83;1.35;;;17.70;99.90;;;;;;5066690;28;20221;-77
2023/07/14 02:32:44;;;;;;;4.70;1.90;;;17.70;99.90;;;;;;5060740;28;20677;-78
2023/07/14 02:35:15;;;;;;;3.25;1.75;;;17.70;99.90;;;;;;5046163;28;20253;-77
2023/07/14 02:38:03;;;;;;;3.40;1.33;;;17.60;99.90;;;;;;5051018;28;20616;-77
2023/07/14 02:40:35;;;;;;;2.67;1.85;;;17.60;99.90;;;;;;5064111;28;20237;-78
2023/07/14 02:43:07;;;;;;;4.75;1.70;;;17.50;99.90;;;;;;5064234;28;20205;-77
2023/07/14 02:45:36;;;;;;;3.05;2.00;;;17.50;99.90;;;;;;5054049;28;20256;-77
2023/07/14 02:48:05;;;;;;;4.43;2.00;;;17.40;99.90;;;;;;5056783;28;20270;-77
2023/07/14 02:50:34;;;;;;;2.85;1.77;;;17.30;99.90;;;;;;5053944;28;20214;-76
2023/07/14 02:53:02;;;;;;;3.15;2.17;;;17.30;99.90;;;;;;5057097;28;20249;-77
2023/07/14 02:55:30;;;;;;;1.77;1.67;;;17.30;99.90;;;;;;5060044;28;20239;-77
2023/07/14 02:57:58;;;;;;;2.75;1.80;;;17.20;99.90;;;;;;5059609;28;20204;-77
2023/07/14 03:00:26;;;;;;;4.28;1.88;;;17.20;99.90;;;;;;5068384;28;20302;-77
2023/07/14 03:02:54;;;;;;;3.35;1.83;;;17.20;99.90;;;;;;5059867;28;20209;-76
2023/07/14 03:05:22;;;;;;;4.05;2.03;;;17.30;99.90;;;;;;5053593;28;20908;-76
2023/07/14 03:07:51;;;;;;;4.50;1.83;;;17.20;99.90;;;;;;5065990;28;20236;-76
2023/07/14 03:10:20;;;;;;;2.03;1.90;;;17.20;99.90;;;;;;5061925;28;20319;-76
2023/07/14 03:12:48;;;;;;;3.03;1.75;;;17.20;99.90;;;;;;5062460;28;20705;-77
2023/07/14 03:15:16;;;;;;;2.15;1.88;;;17.20;99.90;;;;;;5066443;28;20232;-79
2023/07/14 03:17:43;;;;;;;1.90;1.80;;;17.20;99.90;;;;;;5063961;28;20259;-79
2023/07/14 03:20:14;;;;;;;2.63;2.03;;;17.20;99.90;;;;;;5057043;28;20221;-79
2023/07/14 03:22:41;;;;;;;2.35;1.85;;;17.20;99.90;;;;;;5074636;28;20406;-79
2023/07/14 03:25:11;;;;;;;3.92;1.70;;;17.10;99.90;;;;;;5060251;28;20204;-79
2023/07/14 03:27:40;;;;;;;5.10;1.83;;;17.20;99.90;;;;;;5056187;28;20252;-77
2023/07/14 03:30:08;;;;;;;4.40;1.67;;;17.20;99.90;;;;;;5054161;28;20221;-78
2023/07/14 03:32:36;;;;;;;2.50;1.88;;;17.20;99.90;;;;;;5055081;28;20303;-77
2023/07/14 03:35:05;;;;;;;3.83;1.73;;;17.20;99.90;;;;;;5063321;28;20204;-77
2023/07/14 03:37:33;;;;;;;4.80;1.67;;;17.10;99.90;;;;;;5068239;28;20205;-77
2023/07/14 03:40:01;;;;;;;2.13;1.55;;;17.10;99.90;;;;;;5055389;28;20246;-77
2023/07/14 03:42:30;;;;;;;4.10;1.67;;;17.10;99.90;;;;;;5063947;28;20233;-78
2023/07/14 03:44:58;;;;;;;2.17;1.75;;;17.10;99.90;;;;;;5059685;28;20260;-78
2023/07/14 03:47:26;;;;;;;1.55;1.45;;;17.10;99.90;;;;;;5042530;28;20210;-78
2023/07/14 03:49:54;;;;;;;6.80;1.70;;;17.10;99.90;;;;;;5063019;28;20777;-78
2023/07/14 03:52:22;;;;;;;4.13;1.58;;;17.10;99.90;;;;;;5064819;28;20620;-79
2023/07/14 03:54:50;;;;;;;1.60;1.50;;;17.10;99.90;;;;;;5051407;28;20194;-78
2023/07/14 03:57:18;;;;;;;1.80;1.67;;;17.10;99.90;;;;;;5067715;28;20262;-78
2023/07/14 03:59:47;;;;;;;3.05;1.77;;;17.10;99.90;;;;;;5053466;28;20312;-78
2023/07/14 04:02:15;;;;;;;1.80;1.70;;;17.10;99.90;;;;;;5052835;28;20594;-78
2023/07/14 04:04:43;;;;;;;1.98;1.73;;;17.10;99.90;;;;;;5053488;28;20387;-77
2023/07/14 04:07:11;;;;;;;1.60;1.50;;;17.10;99.90;;;;;;5053099;28;20215;-77
2023/07/14 04:09:39;;;;;;;3.08;1.67;;;17.10;99.90;;;;;;5068296;28;20250;-77
2023/07/14 04:12:08;;;;;;;2.53;1.90;;;17.10;99.90;;;;;;5053080;28;20250;-78
2023/07/14 04:14:36;;;;;;;2.22;1.60;;;17.10;99.90;;;;;;5056755;28;20225;-80
2023/07/14 04:17:05;;;;;;;2.97;1.80;;;17.10;99.90;;;;;;5056676;28;20642;-76
2023/07/14 04:19:33;;;;;;;3.30;1.80;;;17.10;99.90;;;;;;5063288;28;20657;-77
2023/07/14 04:22:01;;;;;;;1.50;1.38;;;17.10;99.90;;;;;;5056192;28;20270;-77
2023/07/14 04:24:29;;;;;;;1.48;1.38;;;17.10;99.90;;;;;;5048122;28;20193;-65
2023/07/14 04:26:56;;;;;;;3.47;1.85;;;17.20;99.90;;;;;;5058944;28;20240;-65
2023/07/14 04:29:23;;;;;;;5.57;1.95;;;17.50;99.90;;;;;;5058516;28;20221;-65
2023/07/14 04:31:51;;;;;;;3.35;1.85;;;18.00;99.90;;;;;;5069693;28;20240;-64
2023/07/14 04:34:21;;;;;;;4.78;1.75;;;18.40;99.90;;;;;;5052612;28;20236;-65
2023/07/14 04:36:49;;;;;;;2.25;1.50;;;18.70;99.90;;;;;;5055528;28;20699;-65
2023/07/14 04:39:17;;;;;;;2.33;1.63;;;18.90;99.90;;;;;;5064501;28;20782;-65
2023/07/14 04:41:45;;;;;;;5.40;1.92;;;19.10;99.90;;;;;;5064833;28;20197;-65
2023/07/14 04:44:14;;;;;;;2.50;1.77;;;19.20;99.90;;;;;;5058186;28;20232;-65
2023/07/14 04:46:43;;;;;;;2.33;2.08;;;19.40;99.90;;;;;;5059014;28;20220;-65
2023/07/14 04:49:11;;;;;;;3.88;2.38;;;19.40;99.90;;;;;;5057317;28;20248;-65
2023/07/14 04:51:40;;;;;;;2.33;1.95;;;19.50;99.90;;;;;;5047408;28;20225;-65
2023/07/14 04:54:08;;;;;;;3.90;2.15;;;19.60;99.90;;;;;;5062041;28;20244;-65
2023/07/14 04:56:36;;;;;;;2.80;1.55;;;19.70;99.90;;;;;;5069550;28;20204;-65
2023/07/14 04:59:05;;;;;;;6.15;2.15;;;19.80;99.90;;;;;;5060450;28;20244;-65
2023/07/14 05:01:33;;;;;;;4.78;2.05;;;19.80;99.90;;;;;;5062486;28;20259;-64
2023/07/14 05:04:01;;;;;;;3.35;1.77;;;19.90;99.90;;;;;;5042188;28;20204;-65
2023/07/14 05:06:28;;;;;;;2.58;1.73;;;19.90;99.90;;;;;;5041513;28;20202;-65
2023/07/14 05:08:58;;;;;;;3.47;1.63;;;19.90;99.90;;;;;;5064702;28;20268;-65
2023/07/14 05:11:26;;;;;;;5.93;2.00;;;19.90;99.90;;;;;;5058099;28;20201;-66
2023/07/14 05:13:54;;;;;;;3.63;1.67;;;19.80;99.90;;;;;;5063014;28;20267;-66
2023/07/14 05:16:22;;;;;;;4.88;2.10;;;19.80;99.90;;;;;;5051425;28;20315;-66
2023/07/14 05:18:50;;;;;;;1.88;1.73;;;19.80;99.90;;;;;;5066104;28;20216;-66
2023/07/14 05:21:18;;;;;;;1.65;1.40;;;19.80;99.90;;;;;;5044230;28;20353;-66
2023/07/14 05:23:46;;;;;;;3.80;1.58;;;19.70;99.90;;;;;;5057584;28;20225;-65
2023/07/14 05:26:15;;;;;;;1.48;1.23;;;19.50;99.90;;;;;;5058738;28;20960;-65
2023/07/14 05:28:43;;;;;;;3.55;1.95;;;19.40;99.90;;;;;;5059701;28;20221;-65
2023/07/14 05:31:12;;;;;;;5.90;1.80;;;19.40;99.90;;;;;;5063232;28;20197;-65
2023/07/14 05:33:40;;;;;;;3.47;1.90;;;19.60;99.90;;;;;;5052927;28;20269;-64
2023/07/14 05:36:08;;;;;;;4.40;2.08;;;19.80;99.90;;;;;;5063698;28;20201;-65
2023/07/14 05:38:36;;;;;;;5.13;1.92;;;20.00;99.90;;;;;;5057775;28;20566;-64
2023/07/14 05:41:04;;;;;;;6.30;1.70;;;20.10;99.90;;;;;;5056179;28;20292;-65
2023/07/14 05:43:34;;;;;;;5.53;1.70;;;20.20;99.90;;;;;;5064103;28;20201;-65
2023/07/14 05:46:01;;;;;;;5.25;2.08;;;20.10;99.90;;;;;;5035517;28;20224;-64
2023/07/14 05:48:29;;;;;;;4.68;1.70;;;20.20;99.90;;;;;;5060710;28;20637;-64
2023/07/14 05:50:58;;;;;;;2.75;1.48;;;20.30;99.90;;;;;;5059108;28;20235;-64
2023/07/14 05:53:26;;;;;;;3.58;1.80;;;20.40;99.90;;;;;;5068818;28;20205;-64
2023/07/14 05:55:56;;;;;;;3.97;1.98;;;20.40;99.90;;;;;;5051559;28;20209;-65
2023/07/14 05:58:24;;;;;;;3.17;2.10;;;20.50;99.90;;;;;;5061552;28;20198;-64
2023/07/14 06:00:55;;;;;;;3.50;1.95;;;20.50;99.90;;;;;;5059285;28;20209;-64
2023/07/14 06:03:23;;;;;;;5.13;1.83;;;20.50;99.90;;;;;;5053219;28;20726;-64
2023/07/14 06:05:51;;;;;;;8.10;2.05;;;20.50;99.90;;;;;;5064025;28;20213;-64
2023/07/14 06:08:19;;;;;;;3.08;1.60;;;20.40;99.90;;;;;;5055123;28;20201;-64
2023/07/14 06:10:51;;;;;;;8.95;2.10;;;20.40;99.90;;;;;;5057706;28;20995;-64
2023/07/14 06:13:19;;;;;;;1.85;1.50;;;20.50;99.90;;;;;;5051636;28;20376;-65
2023/07/14 06:15:48;;;;;;;4.32;1.83;;;20.50;99.90;;;;;;5051832;28;20260;-64
2023/07/14 06:18:18;;;;;;;2.58;1.77;;;20.60;99.90;;;;;;5060174;28;20197;-64
2023/07/14 06:20:46;;;;;;;3.70;1.80;;;20.60;99.90;;;;;;5068225;28;20193;-64
2023/07/14 06:23:14;;;;;;;3.40;1.73;;;20.70;99.90;;;;;;5054842;28;20205;-65
2023/07/14 06:25:42;;;;;;;3.33;2.10;;;20.70;99.90;;;;;;5057753;28;20219;-64
2023/07/14 06:28:10;;;;;;;4.32;2.00;;;20.70;99.90;;;;;;5052697;28;20707;-64
2023/07/14 06:30:38;;;;;;;2.90;2.08;;;20.70;99.90;;;;;;5060389;28;20287;-64
2023/07/14 06:33:06;;;;;;;7.03;2.22;;;20.70;99.90;;;;;;5067896;28;20200;-64
2023/07/14 06:35:37;;;;;;;3.58;2.03;;;20.50;99.90;;;;;;5051214;28;20320;-64
2023/07/14 06:38:06;;;;;;;7.57;2.38;;;20.40;99.90;;;;;;5064271;28;20205;-64
2023/07/14 06:40:34;;;;;;;3.47;1.73;;;20.30;99.90;;;;;;5056892;28;20658;-63
2023/07/14 06:43:02;;;;;;;8.55;1.80;;;20.50;99.90;;;;;;5053217;28;20274;-64
2023/07/14 06:45:30;;;;;;;2.40;1.88;;;20.60;99.90;;;;;;5065185;28;20205;-64
2023/07/14 06:47:58;;;;;;;6.45;2.03;;;20.60;99.90;;;;;;5052064;28;20220;-65
2023/07/14 06:50:26;;;;;;;4.57;2.03;;;20.70;99.90;;;;;;5061028;28;20304;-64
2023/07/14 06:52:55;;;;;;;3.55;2.05;;;20.60;99.90;;;;;;5059806;28;20582;-64
2023/07/14 06:55:23;;;;;;;6.63;1.80;;;20.50;99.90;;;;;;5051979;28;20224;-64
2023/07/14 06:57:52;;;;;;;3.30;1.85;;;20.40;99.90;;;;;;5064782;28;20201;-64
2023/07/14 07:00:21;;;;;;;8.85;2.38;;;20.50;99.90;;;;;;5054758;28;20346;-64
2023/07/14 07:02:49;;;;;;;2.88;1.77;;;20.70;99.90;;;;;;5057279;28;20677;-64
2023/07/14 07:05:21;;;;;;;4.97;2.03;;;20.80;99.90;;;;;;5061943;28;20326;-71
2023/07/14 07:07:49;;;;;;;4.68;2.20;;;20.80;99.90;;;;;;5050922;28;20223;-71
2023/07/14 07:10:18;;;;;;;2.42;1.83;;;20.80;99.90;;;;;;5061227;28;20232;-71
2023/07/14 07:12:46;;;;;;;2.08;1.63;;;20.70;99.90;;;;;;5058276;28;20270;-70
2023/07/14 07:15:14;;;;;;;4.22;1.85;;;20.60;99.90;;;;;;5051427;28;20243;-71
2023/07/14 07:17:43;;;;;;;2.33;1.60;;;20.60;99.90;;;;;;5063545;28;20208;-71
2023/07/14 07:20:11;;;;;;;3.20;1.65;;;20.70;99.90;;;;;;5053126;28;20220;-71
2023/07/14 07:22:42;;;;;;;6.60;1.90;;;20.70;99.90;;;;;;5058820;28;20236;-70
2023/07/14 07:25:10;;;;;;;6.10;2.08;;;20.70;99.90;;;;;;5060447;28;20192;-71
2023/07/14 07:27:39;;;;;;;4.28;1.67;;;20.70;99.90;;;;;;5051429;28;20291;-71
2023/07/14 07:30:09;;;;;;;2.38;1.67;;;20.80;99.90;;;;;;5062844;28;20229;-70
2023/07/14 07:32:37;;;;;;;3.92;1.80;;;20.90;99.90;;;;;;5056974;28;20216;-71
2023/07/14 07:35:06;;;;;;;4.38;1.75;;;21.20;99.90;;;;;;5054123;28;20735;-70
2023/07/14 07:37:34;;;;;;;6.30;1.85;;;21.30;99.90;;;;;;5064221;28;20230;-71
2023/07/14 07:40:03;;;;;;;3.05;1.77;;;21.40;99.90;;;;;;5051603;28;20220;-68
2023/07/14 07:42:31;;;;;;;3.17;1.38;;;21.40;99.90;;;;;;5060081;28;20213;-71
2023/07/14 07:45:00;;;;;;;3.78;1.52;;;21.40;99.90;;;;;;5060950;28;20258;-70
2023/07/14 07:47:28;;;;;;;7.38;1.48;;;21.50;99.90;;;;;;5055133;28;20241;-71
2023/07/14 07:49:56;;;;;;;3.97;1.48;;;21.60;99.90;;;;;;5067385;28;20225;-71
2023/07/14 07:52:24;;;;;;;1.75;1.65;;;21.70;99.90;;;;;;5058237;28;20217;-71
2023/07/14 07:54:52;;;;;;;1.77;1.48;;;21.80;99.90;;;;;;5058958;28;20222;-71
2023/07/14 07:57:20;;;;;;;5.68;1.27;;;21.90;99.90;;;;;;5065225;28;20197;-71
2023/07/14 07:59:49;;;;;;;3.92;1.42;;;22.00;99.90;;;;;;5054240;28;20225;-71
2023/07/14 08:02:18;;;;;;;3.67;1.70;;;22.10;99.90;;;;;;5064290;28;20651;-71
2023/07/14 08:04:49;;;;;;;3.58;1.20;;;22.10;99.90;;;;;;5052055;28;20194;-71
2023/07/14 08:07:17;;;;;;;6.75;1.70;;;22.10;99.90;;;;;;5050098;28;20210;-71
2023/07/14 08:09:45;;;;;;;5.22;1.70;;;22.20;99.90;;;;;;5067121;28;20267;-69
2023/07/14 08:12:13;;;;;;;5.75;1.48;;;22.30;99.90;;;;;;5056397;28;20204;-71
2023/07/14 08:14:51;;;;;;;5.47;1.25;;;22.30;99.90;;;;;;5060080;28;20220;-71
2023/07/14 08:17:23;;;;;;;4.65;1.58;;;22.30;99.90;;;;;;5065306;28;20200;-71
2023/07/14 08:19:51;;;;;;;2.03;1.17;;;22.30;99.90;;;;;;5054513;28;20279;-71
2023/07/14 08:22:22;;;;;;;3.00;1.50;;;22.40;99.90;;;;;;5064325;28;20200;-68
2023/07/14 08:24:50;;;;;;;2.42;1.30;;;22.60;99.90;;;;;;5060349;28;20254;-71
2023/07/14 08:27:18;;;;;;;5.90;1.70;;;22.70;99.90;;;;;;5055485;28;20212;-69
2023/07/14 08:29:45;;;;;;;6.13;1.48;;;22.70;99.90;;;;;;5067360;28;20271;-71
2023/07/14 08:32:15;;;;;;;5.72;1.27;;;22.80;99.90;;;;;;5056004;28;20192;-71
2023/07/14 08:34:45;;;;;;;13.52;1.52;;;22.80;99.90;;;;;;5059665;28;20577;-71
2023/07/14 08:37:14;;;;;;;5.53;1.50;;;22.90;99.90;;;;;;5063918;28;20731;-71
2023/07/14 08:39:43;;;;;;;3.58;1.48;;;23.10;99.90;;;;;;5053469;28;20224;-71
2023/07/14 08:42:20;;;;;;;3.47;1.30;;;23.20;99.90;;;;;;5064669;28;20240;-71
2023/07/14 08:44:55;;;;;;;5.75;1.50;;;23.40;99.90;;;;;;5056570;28;20835;-71
2023/07/14 08:47:24;;;;;;;3.25;1.55;;;23.70;99.90;;;;;;5059429;28;20250;-71
2023/07/14 08:49:57;;;;;;;4.05;1.80;;;23.80;99.90;;;;;;5062732;28;20308;-71
2023/07/14 08:52:26;;;;;;;3.05;1.63;;;23.90;99.90;;;;;;5068586;28;20233;-72
2023/07/14 08:54:59;;;;;;;2.72;1.40;;;24.00;99.90;;;;;;5057816;28;20206;-73
2023/07/14 08:57:27;;;;;;;3.63;1.60;;;24.10;99.90;;;;;;5064987;28;20204;-72
2023/07/14 08:59:56;;;;;;;7.28;1.65;;;24.20;99.90;;;;;;5053669;28;20252;-71
2023/07/14 09:02:29;;;;;;;7.70;1.45;;;24.10;99.90;;;;;;5061495;28;20716;-71
2023/07/14 09:05:01;;;;;;;7.40;1.90;;;24.10;99.90;;;;;;5050841;28;20201;-71
2023/07/14 09:07:29;;;;;;;2.70;1.40;;;24.20;99.90;;;;;;5055540;28;20584;-72
2023/07/14 09:09:57;;;;;;;5.40;1.55;;;24.20;99.90;;;;;;5053947;28;20286;-71
2023/07/14 09:12:28;;;;;;;5.30;1.65;;;24.30;99.90;;;;;;5052735;28;20682;-71
2023/07/14 09:14:58;;;;;;;4.28;1.50;;;24.50;99.90;;;;;;5064238;28;20201;-71
2023/07/14 09:17:33;;;;;;;4.72;1.60;;;24.50;99.90;;;;;;5055605;28;20231;-71
2023/07/14 09:20:26;;;;;;;5.22;1.75;;;24.70;99.90;;;;;;5057691;28;20252;-73
2023/07/14 09:22:58;;;;;;;6.30;1.60;;;24.90;99.90;;;;;;5065246;28;20232;-72
2023/07/14 09:25:29;;;;;;;15.18;7.20;;;25.00;99.90;;;;;;5049399;28;20205;-72
2023/07/14 09:27:57;;;;;;;5.80;2.63;;;25.20;99.90;;;;;;5056872;28;20735;-71
2023/07/14 09:30:26;;;;;;;5.70;2.22;;;25.40;99.90;;;;;;5052288;28;20248;-71
2023/07/14 09:32:56;;;;;;;6.40;1.20;;;25.60;99.90;;;;;;5058780;28;20292;-71
2023/07/14 09:35:28;;;;;;;2.53;1.52;;;25.80;99.90;;;;;;5058751;28;20304;-71
2023/07/14 09:37:58;;;;;;;4.75;1.48;;;25.80;99.90;;;;;;5056756;28;20201;-71
2023/07/14 09:40:27;;;;;;;5.40;1.73;;;25.70;99.90;;;;;;5055694;28;20271;-71
2023/07/14 09:42:55;;;;;;;3.40;1.50;;;25.70;99.90;;;;;;5063952;28;20209;-73
2023/07/14 09:45:25;;;;;;;5.50;1.55;;;25.80;99.90;;;;;;5055946;28;20235;-73
2023/07/14 09:47:56;;;;;;;3.80;1.70;;;26.10;99.90;;;;;;5052603;28;20382;-71
2023/07/14 09:50:26;;;;;;;1.95;1.42;;;26.30;99.90;;;;;;5049609;28;20271;-71
2023/07/14 09:52:55;;;;;;;4.00;1.83;;;26.50;99.90;;;;;;5059352;28;20213;-71
2023/07/14 09:55:23;;;;;;;5.63;1.38;;;26.80;99.90;;;;;;5060696;28;20247;-72
2023/07/14 09:57:53;;;;;;;2.45;1.35;;;27.00;99.90;;;;;;5059525;28;20225;-73
2023/07/14 10:00:39;;;;;;;5.53;1.55;;;26.90;99.90;;;;;;5054407;28;20198;-73
2023/07/14 10:03:09;;;;;;;5.13;1.60;;;26.70;99.90;;;;;;5057570;28;20281;-73
2023/07/14 10:05:48;;;;;;;4.00;1.58;;;26.60;99.90;;;;;;5048579;28;20209;-73
2023/07/14 10:08:29;;;;;;;4.68;1.42;;;26.50;99.90;;;;;;5060795;28;20200;-73
2023/07/14 10:10:58;;;;;;;4.18;1.55;;;26.60;99.90;;;;;;5056183;28;20242;-72
2023/07/14 10:13:27;;;;;;;9.52;1.80;;;26.70;99.60;;;;;;5056943;28;20255;-75
2023/07/14 10:15:57;;;;;;;8.73;1.30;;;26.60;99.60;;;;;;5066317;28;20204;-72
2023/07/14 10:18:27;;;;;;;5.53;1.40;;;26.40;99.10;;;;;;5061229;28;20292;-73
2023/07/14 10:21:01;;;;;;;4.65;1.33;;;26.30;99.50;;;;;;5060043;28;20251;-73
2023/07/14 10:23:29;;;;;;;6.80;1.48;;;26.30;99.90;;;;;;5059289;28;20581;-73
2023/07/14 10:25:57;;;;;;;2.97;1.25;;;26.30;99.90;;;;;;5062047;28;20250;-73
2023/07/14 10:28:28;;;;;;;4.30;1.55;;;26.40;99.50;;;;;;5066744;28;20237;-73
2023/07/14 10:31:04;;;;;;;6.85;1.30;;;26.60;99.90;;;;;;5050245;28;20593;-73
2023/07/14 10:33:39;;;;;;;3.33;1.27;;;26.80;98.80;;;;;;5050827;28;20561;-73
2023/07/14 10:36:10;;;;;;;2.45;1.10;;;26.90;97.80;;;;;;5048974;28;20225;-72
2023/07/14 10:38:45;;;;;;;2.47;1.05;;;26.90;98.20;;;;;;5049440;28;20231;-73
2023/07/14 10:41:15;;;;;;;5.95;1.35;;;26.90;97.60;;;;;;5060112;28;20295;-72
2023/07/14 10:43:47;;;;;;;1.77;0.90;;;26.90;98.10;;;;;;5062732;28;20227;-65
2023/07/14 10:46:17;;;;;;;5.85;1.30;;;26.90;96.70;;;;;;5061728;28;20224;-66
2023/07/14 10:48:47;;;;;;;5.25;1.20;;;26.80;97.10;;;;;;5056586;28;20233;-66
2023/07/14 10:51:26;;;;;;;1.40;1.23;;;26.60;97.90;;;;;;5058344;28;20300;-66
2023/07/14 10:53:57;;;;;;;2.92;1.02;;;26.50;98.60;;;;;;5054582;28;20208;-66
2023/07/14 10:56:27;;;;;;;4.88;1.15;;;26.30;97.80;;;;;;5050440;28;20256;-66
2023/07/14 10:58:57;;;;;;;6.03;1.70;;;26.20;98.40;;;;;;5047570;28;20232;-66
2023/07/14 11:01:30;;;;;;;1.67;1.20;;;26.10;98.70;;;;;;5057120;28;20228;-66
2023/07/14 11:04:00;;;;;;;6.35;1.13;;;26.00;99.00;;;;;;5067333;28;20271;-66
2023/07/14 11:06:30;;;;;;;4.63;1.40;;;25.90;98.30;;;;;;5059583;28;20190;-72
2023/07/14 11:08:58;;;;;;;3.08;1.20;;;25.80;98.20;;;;;;5059558;28;20224;-73
2023/07/14 11:11:27;;;;;;;5.63;1.20;;;25.70;99.00;;;;;;5052201;28;20201;-73
2023/07/14 11:14:02;;;;;;;5.88;1.33;;;25.50;98.80;;;;;;5064044;28;20251;-73
2023/07/14 11:16:33;;;;;;;3.15;1.30;;;25.50;98.50;;;;;;5060553;28;20603;-73
2023/07/14 11:19:06;;;;;;;2.70;1.48;;;25.50;98.60;;;;;;5054314;28;20232;-73
2023/07/14 11:21:40;;;;;;;2.05;1.10;;;25.50;98.90;;;;;;5066922;28;20193;-72
2023/07/14 11:24:16;;;;;;;3.00;1.30;;;25.50;99.10;;;;;;5054713;28;20197;-73
2023/07/14 11:26:55;;;;;;;2.30;1.13;;;25.50;99.90;;;;;;5059723;28;20306;-73
2023/07/14 11:29:23;;;;;;;3.85;1.25;;;25.50;99.90;;;;;;5066031;28;20255;-74
2023/07/14 11:31:52;;;;;;;6.65;1.70;;;25.50;99.90;;;;;;5055412;28;20233;-73
2023/07/14 11:34:25;;;;;;;3.78;1.48;;;25.50;99.90;;;;;;5064730;28;20201;-73
2023/07/14 11:36:59;;;;;;;4.10;1.30;;;25.70;99.90;;;;;;5061946;28;20224;-73
2023/07/14 11:39:39;;;;;;;6.95;1.40;;;25.80;99.90;;;;;;5055870;28;20225;-72
2023/07/14 11:42:16;;;;;;;5.82;1.52;;;25.80;99.00;;;;;;5041372;28;20196;-73
2023/07/14 11:44:44;;;;;;;5.18;1.67;;;25.80;98.70;;;;;;5061203;28;20197;-73
2023/07/14 11:47:12;;;;;;;4.07;1.30;;;26.00;99.90;;;;;;5064751;28;20254;-72
2023/07/14 11:49:40;;;;;;;3.13;1.52;;;26.30;99.50;;;;;;5054584;28;20658;-73
2023/07/14 11:52:14;;;;;;;3.88;1.50;;;26.60;99.90;;;;;;5071742;28;20266;-74
2023/07/14 11:54:42;;;;;;;5.25;1.60;;;26.80;99.40;;;;;;5061444;28;20205;-73
2023/07/14 11:57:16;;;;;;;4.93;1.33;;;27.10;98.40;;;;;;5064608;28;20727;-74
2023/07/14 11:59:56;;;;;;;4.88;1.55;;;27.30;98.00;;;;;;5055030;28;20228;-73
2023/07/14 12:02:38;;;;;;;4.57;1.17;;;27.70;97.80;;;;;;5064471;28;20201;-73
2023/07/14 12:05:31;;;;;;;4.20;1.50;;;27.90;98.70;;;;;;5063243;28;20204;-73
2023/07/14 12:08:23;;;;;;;3.42;0.98;;;28.10;99.40;;;;;;5029855;28;20550;-73
2023/07/14 12:10:51;;;;;;;4.43;1.13;;;28.10;98.00;;;;;;5060361;28;20288;-73
2023/07/14 12:13:27;;;;;;;2.40;1.08;;;28.00;97.00;;;;;;5065726;28;20207;-73
2023/07/14 12:16:12;;;;;;;2.67;1.67;;;28.00;97.30;;;;;;5053672;28;20254;-74
2023/07/14 12:18:59;;;;;;;2.28;1.33;;;27.90;97.40;;;;;;5061062;28;20235;-73
2023/07/14 12:21:35;;;;;;;6.13;1.50;;;27.80;95.20;;;;;;5066637;28;20196;-73
2023/07/14 12:24:15;;;;;;;3.70;1.60;;;27.80;96.40;;;;;;5039221;28;20710;-73
2023/07/14 12:26:46;;;;;;;3.05;1.23;;;27.80;96.30;;;;;;5060489;28;20198;-73
2023/07/14 12:29:16;;;;;;;4.18;1.10;;;27.80;96.70;;;;;;5064404;28;20259;-73
2023/07/14 12:31:49;;;;;;;4.82;1.33;;;28.00;96.20;;;;;;5052822;28;20584;-73
2023/07/14 12:34:17;;;;;;;4.10;1.40;;;28.20;96.60;;;;;;5064648;28;20216;-73
2023/07/14 12:36:45;;;;;;;6.13;1.63;;;28.40;95.90;;;;;;5059665;28;20204;-73
2023/07/14 12:39:14;;;;;;;3.25;1.30;;;28.60;94.40;;;;;;5056293;28;20745;-73
2023/07/14 12:41:48;;;;;;;6.88;1.30;;;28.90;94.50;;;;;;5066777;28;20674;-73
2023/07/14 12:44:22;;;;;;;3.55;1.35;;;29.30;93.30;;;;;;5050345;28;20237;-73
2023/07/14 12:46:50;;;;;;;4.57;1.25;;;29.80;91.50;;;;;;5060271;28;20328;-73
2023/07/14 12:49:20;;;;;;;6.10;1.33;;;30.20;90.80;;;;;;5055673;28;20221;-73
2023/07/14 12:51:48;;;;;;;6.28;1.30;;;30.30;90.70;;;;;;5068638;28;20204;-75
2023/07/14 12:54:18;;;;;;;2.42;1.20;;;30.40;90.10;;;;;;5064486;28;20665;-73
2023/07/14 12:56:46;;;;;;;2.55;1.08;;;30.30;88.00;;;;;;5059650;28;20658;-76
2023/07/14 12:59:15;;;;;;;3.55;1.30;;;30.50;90.00;;;;;;5055958;28;20225;-73
2023/07/14 13:01:46;;;;;;;2.85;1.38;;;30.60;89.50;;;;;;5066523;28;20223;-73